Airport View

Enter AWOS ICAO identifier for current METAR.

ex. KFNL

KMEM 192154Z 00000KT 10SM R36L/4500VP6000FT FEW150 23/10 A2975 RMK AO2 SLP071 T02330100

19 Oct 2019 22:45

Phone: 901-332-3679

Other Area AWOS: KOLV - KAWM - KNQA - KUTA

TAF AMD KMEM 192112Z 1921/2024 16005KT P6SM SCT150 FM200900 16004KT P6SM OVC050 FM201400 17007KT P6SM OVC050